sensor_id;sensor_type;location;lat;lon;timestamp;P1;durP1;ratioP1;P2;durP2;ratioP2
4290;SDS011;2159;50.906;7.152;2023-06-19T00:01:11;8.30;;;5.10;;
4290;SDS011;2159;50.906;7.152;2023-06-19T00:03:39;5.73;;;5.27;;
4290;SDS011;2159;50.906;7.152;2023-06-19T00:06:06;5.60;;;5.10;;
4290;SDS011;2159;50.906;7.152;2023-06-19T00:08:34;5.30;;;4.90;;
4290;SDS011;2159;50.906;7.152;2023-06-19T00:11:03;5.13;;;4.73;;
4290;SDS011;2159;50.906;7.152;2023-06-19T00:13:30;5.87;;;5.30;;
4290;SDS011;2159;50.906;7.152;2023-06-19T00:16:01;6.10;;;5.60;;
4290;SDS011;2159;50.906;7.152;2023-06-19T00:18:29;5.97;;;5.47;;
4290;SDS011;2159;50.906;7.152;2023-06-19T00:20:56;5.83;;;5.07;;
4290;SDS011;2159;50.906;7.152;2023-06-19T00:23:23;5.83;;;4.67;;
4290;SDS011;2159;50.906;7.152;2023-06-19T00:25:51;5.37;;;4.97;;
4290;SDS011;2159;50.906;7.152;2023-06-19T00:28:18;5.63;;;5.13;;
4290;SDS011;2159;50.906;7.152;2023-06-19T00:30:47;6.37;;;5.17;;
4290;SDS011;2159;50.906;7.152;2023-06-19T00:33:16;5.47;;;5.07;;
4290;SDS011;2159;50.906;7.152;2023-06-19T00:35:44;5.53;;;5.13;;
4290;SDS011;2159;50.906;7.152;2023-06-19T00:38:11;6.13;;;5.63;;
4290;SDS011;2159;50.906;7.152;2023-06-19T00:40:39;6.50;;;5.80;;
4290;SDS011;2159;50.906;7.152;2023-06-19T00:43:08;6.13;;;5.63;;
4290;SDS011;2159;50.906;7.152;2023-06-19T00:45:36;6.07;;;5.57;;
4290;SDS011;2159;50.906;7.152;2023-06-19T00:48:05;6.73;;;5.73;;
4290;SDS011;2159;50.906;7.152;2023-06-19T00:50:34;6.20;;;5.70;;
4290;SDS011;2159;50.906;7.152;2023-06-19T00:53:03;7.10;;;6.20;;
4290;SDS011;2159;50.906;7.152;2023-06-19T00:55:33;6.50;;;5.60;;
4290;SDS011;2159;50.906;7.152;2023-06-19T00:58:01;6.70;;;6.10;;
4290;SDS011;2159;50.906;7.152;2023-06-19T01:00:29;6.33;;;5.83;;
4290;SDS011;2159;50.906;7.152;2023-06-19T01:02:57;7.00;;;6.40;;
4290;SDS011;2159;50.906;7.152;2023-06-19T01:05:25;6.60;;;6.10;;
4290;SDS011;2159;50.906;7.152;2023-06-19T01:07:56;9.10;;;6.07;;
4290;SDS011;2159;50.906;7.152;2023-06-19T01:10:26;6.13;;;5.63;;
4290;SDS011;2159;50.906;7.152;2023-06-19T01:12:56;6.97;;;5.40;;
4290;SDS011;2159;50.906;7.152;2023-06-19T01:15:23;7.07;;;6.37;;
4290;SDS011;2159;50.906;7.152;2023-06-19T01:17:51;6.40;;;5.80;;
4290;SDS011;2159;50.906;7.152;2023-06-19T01:20:19;6.70;;;6.10;;
4290;SDS011;2159;50.906;7.152;2023-06-19T01:22:49;6.80;;;6.10;;
4290;SDS011;2159;50.906;7.152;2023-06-19T01:25:16;6.27;;;5.77;;
4290;SDS011;2159;50.906;7.152;2023-06-19T01:27:44;6.50;;;5.90;;
4290;SDS011;2159;50.906;7.152;2023-06-19T01:30:13;6.47;;;5.97;;
4290;SDS011;2159;50.906;7.152;2023-06-19T01:32:43;6.67;;;6.13;;
4290;SDS011;2159;50.906;7.152;2023-06-19T01:35:11;9.73;;;6.33;;
4290;SDS011;2159;50.906;7.152;2023-06-19T01:37:40;6.93;;;6.23;;
4290;SDS011;2159;50.906;7.152;2023-06-19T01:40:10;7.70;;;7.00;;
4290;SDS011;2159;50.906;7.152;2023-06-19T01:42:38;7.00;;;6.40;;
4290;SDS011;2159;50.906;7.152;2023-06-19T01:45:06;7.23;;;6.07;;
4290;SDS011;2159;50.906;7.152;2023-06-19T01:47:34;7.20;;;6.60;;
4290;SDS011;2159;50.906;7.152;2023-06-19T01:50:02;7.50;;;6.80;;
4290;SDS011;2159;50.906;7.152;2023-06-19T01:52:30;7.47;;;6.60;;
4290;SDS011;2159;50.906;7.152;2023-06-19T01:54:57;6.93;;;6.30;;
4290;SDS011;2159;50.906;7.152;2023-06-19T01:57:26;6.77;;;6.17;;
4290;SDS011;2159;50.906;7.152;2023-06-19T01:59:54;6.50;;;6.00;;
4290;SDS011;2159;50.906;7.152;2023-06-19T02:02:22;6.60;;;6.10;;
4290;SDS011;2159;50.906;7.152;2023-06-19T02:04:49;6.67;;;5.90;;
4290;SDS011;2159;50.906;7.152;2023-06-19T02:07:16;8.00;;;6.23;;
4290;SDS011;2159;50.906;7.152;2023-06-19T02:09:44;6.90;;;6.30;;
4290;SDS011;2159;50.906;7.152;2023-06-19T02:12:11;6.87;;;6.33;;
4290;SDS011;2159;50.906;7.152;2023-06-19T02:14:40;7.23;;;6.53;;
4290;SDS011;2159;50.906;7.152;2023-06-19T02:17:08;6.70;;;6.20;;
4290;SDS011;2159;50.906;7.152;2023-06-19T02:19:35;6.40;;;5.90;;
4290;SDS011;2159;50.906;7.152;2023-06-19T02:22:03;8.13;;;6.50;;
4290;SDS011;2159;50.906;7.152;2023-06-19T02:24:30;6.97;;;6.30;;
4290;SDS011;2159;50.906;7.152;2023-06-19T02:26:58;6.70;;;6.20;;
4290;SDS011;2159;50.906;7.152;2023-06-19T02:29:26;7.00;;;6.40;;
4290;SDS011;2159;50.906;7.152;2023-06-19T02:31:57;7.40;;;6.80;;
4290;SDS011;2159;50.906;7.152;2023-06-19T02:34:24;7.50;;;6.90;;
4290;SDS011;2159;50.906;7.152;2023-06-19T02:36:52;7.37;;;6.67;;
4290;SDS011;2159;50.906;7.152;2023-06-19T02:39:20;7.10;;;6.40;;
4290;SDS011;2159;50.906;7.152;2023-06-19T02:41:49;8.17;;;7.30;;
4290;SDS011;2159;50.906;7.152;2023-06-19T02:44:17;6.87;;;6.27;;
4290;SDS011;2159;50.906;7.152;2023-06-19T02:46:44;7.47;;;6.77;;
4290;SDS011;2159;50.906;7.152;2023-06-19T02:49:13;7.17;;;6.50;;
4290;SDS011;2159;50.906;7.152;2023-06-19T02:51:40;11.23;;;6.43;;
4290;SDS011;2159;50.906;7.152;2023-06-19T02:54:08;7.63;;;7.03;;
4290;SDS011;2159;50.906;7.152;2023-06-19T02:56:35;7.57;;;6.97;;
4290;SDS011;2159;50.906;7.152;2023-06-19T02:59:03;7.47;;;6.87;;
4290;SDS011;2159;50.906;7.152;2023-06-19T03:01:30;7.87;;;7.17;;
4290;SDS011;2159;50.906;7.152;2023-06-19T03:04:00;8.40;;;7.63;;
4290;SDS011;2159;50.906;7.152;2023-06-19T03:06:29;8.33;;;6.53;;
4290;SDS011;2159;50.906;7.152;2023-06-19T03:08:57;7.47;;;6.77;;
4290;SDS011;2159;50.906;7.152;2023-06-19T03:11:25;7.50;;;6.80;;
4290;SDS011;2159;50.906;7.152;2023-06-19T03:13:53;7.57;;;6.87;;
4290;SDS011;2159;50.906;7.152;2023-06-19T03:16:21;7.20;;;6.37;;
4290;SDS011;2159;50.906;7.152;2023-06-19T03:18:49;7.60;;;6.90;;
4290;SDS011;2159;50.906;7.152;2023-06-19T03:21:18;7.50;;;6.90;;
4290;SDS011;2159;50.906;7.152;2023-06-19T03:23:48;7.63;;;6.93;;
4290;SDS011;2159;50.906;7.152;2023-06-19T03:26:15;7.03;;;6.43;;
4290;SDS011;2159;50.906;7.152;2023-06-19T03:28:42;7.73;;;7.03;;
4290;SDS011;2159;50.906;7.152;2023-06-19T03:31:10;7.30;;;6.60;;
4290;SDS011;2159;50.906;7.152;2023-06-19T03:33:37;7.80;;;7.10;;
4290;SDS011;2159;50.906;7.152;2023-06-19T03:36:05;8.10;;;7.40;;
4290;SDS011;2159;50.906;7.152;2023-06-19T03:38:33;7.70;;;7.00;;
4290;SDS011;2159;50.906;7.152;2023-06-19T03:41:02;8.50;;;7.70;;
4290;SDS011;2159;50.906;7.152;2023-06-19T03:43:30;8.67;;;7.83;;
4290;SDS011;2159;50.906;7.152;2023-06-19T03:45:57;7.37;;;6.70;;
4290;SDS011;2159;50.906;7.152;2023-06-19T03:48:25;7.63;;;6.93;;
4290;SDS011;2159;50.906;7.152;2023-06-19T03:50:52;7.77;;;6.97;;
4290;SDS011;2159;50.906;7.152;2023-06-19T03:53:21;7.50;;;6.87;;
4290;SDS011;2159;50.906;7.152;2023-06-19T03:55:49;7.47;;;6.87;;
4290;SDS011;2159;50.906;7.152;2023-06-19T03:58:18;7.87;;;7.20;;
4290;SDS011;2159;50.906;7.152;2023-06-19T04:00:46;7.40;;;6.70;;
4290;SDS011;2159;50.906;7.152;2023-06-19T04:03:14;7.20;;;6.60;;
4290;SDS011;2159;50.906;7.152;2023-06-19T04:05:41;7.43;;;6.70;;
4290;SDS011;2159;50.906;7.152;2023-06-19T04:08:09;7.50;;;6.60;;
4290;SDS011;2159;50.906;7.152;2023-06-19T04:10:37;7.67;;;6.97;;
4290;SDS011;2159;50.906;7.152;2023-06-19T04:13:05;7.60;;;6.90;;
4290;SDS011;2159;50.906;7.152;2023-06-19T04:15:34;7.20;;;6.50;;
4290;SDS011;2159;50.906;7.152;2023-06-19T04:18:02;6.87;;;6.27;;
4290;SDS011;2159;50.906;7.152;2023-06-19T04:20:29;6.90;;;6.30;;
4290;SDS011;2159;50.906;7.152;2023-06-19T04:22:57;9.20;;;6.10;;
4290;SDS011;2159;50.906;7.152;2023-06-19T04:25:24;7.23;;;6.53;;
4290;SDS011;2159;50.906;7.152;2023-06-19T04:27:52;6.93;;;6.30;;
4290;SDS011;2159;50.906;7.152;2023-06-19T04:30:19;8.43;;;6.30;;
4290;SDS011;2159;50.906;7.152;2023-06-19T04:32:49;6.70;;;6.10;;
4290;SDS011;2159;50.906;7.152;2023-06-19T04:35:19;6.70;;;6.10;;
4290;SDS011;2159;50.906;7.152;2023-06-19T04:37:47;7.13;;;6.43;;
4290;SDS011;2159;50.906;7.152;2023-06-19T04:40:15;6.77;;;6.17;;
4290;SDS011;2159;50.906;7.152;2023-06-19T04:42:42;7.30;;;6.03;;
4290;SDS011;2159;50.906;7.152;2023-06-19T04:45:10;7.80;;;5.90;;
4290;SDS011;2159;50.906;7.152;2023-06-19T04:47:38;6.23;;;5.50;;
4290;SDS011;2159;50.906;7.152;2023-06-19T04:50:20;6.00;;;5.50;;
4290;SDS011;2159;50.906;7.152;2023-06-19T04:52:48;5.70;;;5.20;;
4290;SDS011;2159;50.906;7.152;2023-06-19T04:55:18;5.80;;;5.20;;
4290;SDS011;2159;50.906;7.152;2023-06-19T04:57:45;5.40;;;4.97;;
4290;SDS011;2159;50.906;7.152;2023-06-19T05:00:13;6.10;;;5.20;;
4290;SDS011;2159;50.906;7.152;2023-06-19T05:02:41;5.10;;;4.60;;
4290;SDS011;2159;50.906;7.152;2023-06-19T05:05:10;5.63;;;5.13;;
4290;SDS011;2159;50.906;7.152;2023-06-19T05:07:39;6.70;;;4.73;;
4290;SDS011;2159;50.906;7.152;2023-06-19T05:10:06;8.23;;;4.60;;
4290;SDS011;2159;50.906;7.152;2023-06-19T05:12:34;5.30;;;4.80;;
4290;SDS011;2159;50.906;7.152;2023-06-19T05:15:02;5.17;;;4.67;;
4290;SDS011;2159;50.906;7.152;2023-06-19T05:17:30;4.87;;;4.27;;
4290;SDS011;2159;50.906;7.152;2023-06-19T05:19:58;5.30;;;4.87;;
4290;SDS011;2159;50.906;7.152;2023-06-19T05:22:25;5.00;;;4.60;;
4290;SDS011;2159;50.906;7.152;2023-06-19T05:24:54;5.43;;;4.90;;
4290;SDS011;2159;50.906;7.152;2023-06-19T05:27:22;4.80;;;4.40;;
4290;SDS011;2159;50.906;7.152;2023-06-19T05:29:49;5.10;;;4.60;;
4290;SDS011;2159;50.906;7.152;2023-06-19T05:32:17;5.43;;;4.63;;
4290;SDS011;2159;50.906;7.152;2023-06-19T05:34:46;5.20;;;4.67;;
4290;SDS011;2159;50.906;7.152;2023-06-19T05:37:14;6.27;;;4.53;;
4290;SDS011;2159;50.906;7.152;2023-06-19T05:39:41;6.13;;;4.80;;
4290;SDS011;2159;50.906;7.152;2023-06-19T05:42:10;5.20;;;4.70;;
4290;SDS011;2159;50.906;7.152;2023-06-19T05:44:37;8.97;;;4.30;;
4290;SDS011;2159;50.906;7.152;2023-06-19T05:47:06;5.27;;;4.10;;
4290;SDS011;2159;50.906;7.152;2023-06-19T05:49:34;6.50;;;4.17;;
4290;SDS011;2159;50.906;7.152;2023-06-19T05:52:01;5.80;;;4.40;;
4290;SDS011;2159;50.906;7.152;2023-06-19T05:54:29;5.03;;;4.20;;
4290;SDS011;2159;50.906;7.152;2023-06-19T05:56:56;4.40;;;4.10;;
4290;SDS011;2159;50.906;7.152;2023-06-19T05:59:25;7.10;;;4.07;;
4290;SDS011;2159;50.906;7.152;2023-06-19T06:01:53;5.10;;;3.97;;
4290;SDS011;2159;50.906;7.152;2023-06-19T06:04:21;5.27;;;4.27;;
4290;SDS011;2159;50.906;7.152;2023-06-19T06:06:49;8.30;;;3.77;;
4290;SDS011;2159;50.906;7.152;2023-06-19T06:09:17;4.50;;;4.10;;
4290;SDS011;2159;50.906;7.152;2023-06-19T06:11:44;4.20;;;3.80;;
4290;SDS011;2159;50.906;7.152;2023-06-19T06:14:12;3.93;;;3.63;;
4290;SDS011;2159;50.906;7.152;2023-06-19T06:16:40;5.60;;;3.80;;
4290;SDS011;2159;50.906;7.152;2023-06-19T06:19:08;4.63;;;3.43;;
4290;SDS011;2159;50.906;7.152;2023-06-19T06:21:35;3.83;;;3.53;;
4290;SDS011;2159;50.906;7.152;2023-06-19T06:24:03;3.80;;;3.50;;
4290;SDS011;2159;50.906;7.152;2023-06-19T06:26:31;3.80;;;3.50;;
4290;SDS011;2159;50.906;7.152;2023-06-19T06:28:58;4.20;;;3.80;;
4290;SDS011;2159;50.906;7.152;2023-06-19T06:31:26;4.03;;;3.73;;
4290;SDS011;2159;50.906;7.152;2023-06-19T06:33:55;5.10;;;3.80;;
4290;SDS011;2159;50.906;7.152;2023-06-19T06:36:22;5.87;;;3.20;;
4290;SDS011;2159;50.906;7.152;2023-06-19T06:39:02;3.53;;;3.30;;
4290;SDS011;2159;50.906;7.152;2023-06-19T06:41:29;4.80;;;3.67;;
4290;SDS011;2159;50.906;7.152;2023-06-19T06:44:00;5.97;;;3.67;;
4290;SDS011;2159;50.906;7.152;2023-06-19T06:46:28;6.33;;;3.67;;
4290;SDS011;2159;50.906;7.152;2023-06-19T06:48:57;5.53;;;3.70;;
4290;SDS011;2159;50.906;7.152;2023-06-19T06:51:25;4.70;;;4.23;;
4290;SDS011;2159;50.906;7.152;2023-06-19T06:53:52;11.37;;;4.93;;
4290;SDS011;2159;50.906;7.152;2023-06-19T06:56:19;5.03;;;4.53;;
4290;SDS011;2159;50.906;7.152;2023-06-19T06:58:47;4.90;;;4.40;;
4290;SDS011;2159;50.906;7.152;2023-06-19T07:01:14;4.30;;;4.00;;
4290;SDS011;2159;50.906;7.152;2023-06-19T07:03:42;5.80;;;4.20;;
4290;SDS011;2159;50.906;7.152;2023-06-19T07:06:11;8.60;;;4.20;;
4290;SDS011;2159;50.906;7.152;2023-06-19T07:08:38;5.57;;;4.07;;
4290;SDS011;2159;50.906;7.152;2023-06-19T07:11:07;5.83;;;4.47;;
4290;SDS011;2159;50.906;7.152;2023-06-19T07:13:34;4.73;;;4.20;;
4290;SDS011;2159;50.906;7.152;2023-06-19T07:16:01;4.73;;;4.17;;
4290;SDS011;2159;50.906;7.152;2023-06-19T07:18:31;5.33;;;3.93;;
4290;SDS011;2159;50.906;7.152;2023-06-19T07:20:59;4.17;;;3.70;;
4290;SDS011;2159;50.906;7.152;2023-06-19T07:23:28;4.00;;;3.70;;
4290;SDS011;2159;50.906;7.152;2023-06-19T07:25:55;4.50;;;3.87;;
4290;SDS011;2159;50.906;7.152;2023-06-19T07:28:23;7.10;;;3.60;;
4290;SDS011;2159;50.906;7.152;2023-06-19T07:30:51;4.27;;;3.87;;
4290;SDS011;2159;50.906;7.152;2023-06-19T07:33:18;3.63;;;3.13;;
4290;SDS011;2159;50.906;7.152;2023-06-19T07:35:46;3.30;;;3.10;;
4290;SDS011;2159;50.906;7.152;2023-06-19T07:38:13;5.43;;;3.10;;
4290;SDS011;2159;50.906;7.152;2023-06-19T07:40:42;3.30;;;3.10;;
4290;SDS011;2159;50.906;7.152;2023-06-19T07:43:09;3.67;;;3.47;;
4290;SDS011;2159;50.906;7.152;2023-06-19T07:45:37;3.60;;;3.40;;
4290;SDS011;2159;50.906;7.152;2023-06-19T07:48:04;3.13;;;2.93;;
4290;SDS011;2159;50.906;7.152;2023-06-19T07:50:32;3.10;;;2.90;;
4290;SDS011;2159;50.906;7.152;2023-06-19T07:52:59;3.80;;;3.20;;
4290;SDS011;2159;50.906;7.152;2023-06-19T07:55:27;3.20;;;3.00;;
4290;SDS011;2159;50.906;7.152;2023-06-19T07:57:56;4.77;;;2.90;;
4290;SDS011;2159;50.906;7.152;2023-06-19T08:00:24;2.97;;;2.77;;
4290;SDS011;2159;50.906;7.152;2023-06-19T08:02:52;5.57;;;3.23;;
4290;SDS011;2159;50.906;7.152;2023-06-19T08:05:19;3.47;;;2.77;;
4290;SDS011;2159;50.906;7.152;2023-06-19T08:07:47;6.47;;;2.63;;
4290;SDS011;2159;50.906;7.152;2023-06-19T08:10:15;2.50;;;2.40;;
4290;SDS011;2159;50.906;7.152;2023-06-19T08:12:42;2.83;;;2.63;;
4290;SDS011;2159;50.906;7.152;2023-06-19T08:15:11;2.57;;;2.37;;
4290;SDS011;2159;50.906;7.152;2023-06-19T08:17:40;2.57;;;2.37;;
4290;SDS011;2159;50.906;7.152;2023-06-19T08:20:08;1.87;;;1.70;;
4290;SDS011;2159;50.906;7.152;2023-06-19T08:22:35;1.60;;;1.50;;
4290;SDS011;2159;50.906;7.152;2023-06-19T08:25:05;2.70;;;1.50;;
4290;SDS011;2159;50.906;7.152;2023-06-19T08:27:32;1.50;;;1.50;;
4290;SDS011;2159;50.906;7.152;2023-06-19T08:30:00;2.70;;;1.20;;
4290;SDS011;2159;50.906;7.152;2023-06-19T08:32:29;3.00;;;1.50;;
4290;SDS011;2159;50.906;7.152;2023-06-19T08:34:56;1.70;;;1.60;;
4290;SDS011;2159;50.906;7.152;2023-06-19T08:37:24;1.60;;;1.50;;
4290;SDS011;2159;50.906;7.152;2023-06-19T08:39:51;1.53;;;1.43;;
4290;SDS011;2159;50.906;7.152;2023-06-19T08:42:19;2.10;;;1.50;;
4290;SDS011;2159;50.906;7.152;2023-06-19T08:44:46;1.67;;;1.60;;
4290;SDS011;2159;50.906;7.152;2023-06-19T08:47:14;2.20;;;1.73;;
4290;SDS011;2159;50.906;7.152;2023-06-19T08:49:43;8.47;;;2.03;;
4290;SDS011;2159;50.906;7.152;2023-06-19T08:52:10;3.70;;;1.70;;
4290;SDS011;2159;50.906;7.152;2023-06-19T08:54:38;1.60;;;1.50;;
4290;SDS011;2159;50.906;7.152;2023-06-19T08:57:10;1.83;;;1.50;;
4290;SDS011;2159;50.906;7.152;2023-06-19T08:59:39;2.07;;;1.60;;
4290;SDS011;2159;50.906;7.152;2023-06-19T09:02:06;2.00;;;1.90;;
4290;SDS011;2159;50.906;7.152;2023-06-19T09:04:34;2.30;;;1.83;;
4290;SDS011;2159;50.906;7.152;2023-06-19T09:07:03;2.20;;;2.10;;
4290;SDS011;2159;50.906;7.152;2023-06-19T09:09:31;1.70;;;1.60;;
4290;SDS011;2159;50.906;7.152;2023-06-19T09:11:59;2.13;;;2.03;;
4290;SDS011;2159;50.906;7.152;2023-06-19T09:14:34;2.60;;;1.83;;
4290;SDS011;2159;50.906;7.152;2023-06-19T09:17:01;2.00;;;1.90;;
4290;SDS011;2159;50.906;7.152;2023-06-19T09:19:29;3.07;;;1.90;;
4290;SDS011;2159;50.906;7.152;2023-06-19T09:22:00;1.73;;;1.73;;
4290;SDS011;2159;50.906;7.152;2023-06-19T09:24:35;2.23;;;2.00;;
4290;SDS011;2159;50.906;7.152;2023-06-19T09:27:08;1.90;;;1.80;;
4290;SDS011;2159;50.906;7.152;2023-06-19T09:29:39;2.20;;;2.00;;
4290;SDS011;2159;50.906;7.152;2023-06-19T09:32:16;1.93;;;1.83;;
4290;SDS011;2159;50.906;7.152;2023-06-19T09:34:44;2.40;;;2.20;;
4290;SDS011;2159;50.906;7.152;2023-06-19T09:37:12;2.30;;;2.10;;
4290;SDS011;2159;50.906;7.152;2023-06-19T09:39:41;2.33;;;2.23;;
4290;SDS011;2159;50.906;7.152;2023-06-19T09:42:08;2.10;;;2.00;;
4290;SDS011;2159;50.906;7.152;2023-06-19T09:44:39;2.03;;;1.93;;
4290;SDS011;2159;50.906;7.152;2023-06-19T09:47:13;3.17;;;2.20;;
4290;SDS011;2159;50.906;7.152;2023-06-19T09:49:48;4.30;;;2.20;;
4290;SDS011;2159;50.906;7.152;2023-06-19T09:52:16;3.40;;;2.23;;
4290;SDS011;2159;50.906;7.152;2023-06-19T09:54:46;3.70;;;2.27;;
4290;SDS011;2159;50.906;7.152;2023-06-19T09:57:15;2.57;;;2.47;;
4290;SDS011;2159;50.906;7.152;2023-06-19T09:59:44;2.50;;;2.27;;
4290;SDS011;2159;50.906;7.152;2023-06-19T10:02:13;3.13;;;2.30;;
4290;SDS011;2159;50.906;7.152;2023-06-19T10:04:42;2.20;;;2.10;;
4290;SDS011;2159;50.906;7.152;2023-06-19T10:07:15;2.97;;;2.10;;
4290;SDS011;2159;50.906;7.152;2023-06-19T10:09:55;2.10;;;2.00;;
4290;SDS011;2159;50.906;7.152;2023-06-19T10:12:23;2.40;;;2.30;;
4290;SDS011;2159;50.906;7.152;2023-06-19T10:15:07;2.73;;;2.53;;
4290;SDS011;2159;50.906;7.152;2023-06-19T10:17:35;2.93;;;2.73;;
4290;SDS011;2159;50.906;7.152;2023-06-19T10:20:03;3.00;;;2.70;;
4290;SDS011;2159;50.906;7.152;2023-06-19T10:22:30;2.83;;;2.63;;
4290;SDS011;2159;50.906;7.152;2023-06-19T10:24:59;2.87;;;2.60;;
4290;SDS011;2159;50.906;7.152;2023-06-19T10:27:27;2.90;;;2.70;;
4290;SDS011;2159;50.906;7.152;2023-06-19T10:29:54;2.90;;;2.63;;
4290;SDS011;2159;50.906;7.152;2023-06-19T10:32:30;2.83;;;2.70;;
4290;SDS011;2159;50.906;7.152;2023-06-19T10:34:57;3.57;;;2.50;;
4290;SDS011;2159;50.906;7.152;2023-06-19T10:37:31;3.90;;;2.67;;
4290;SDS011;2159;50.906;7.152;2023-06-19T10:40:00;4.83;;;2.83;;
4290;SDS011;2159;50.906;7.152;2023-06-19T10:42:29;3.10;;;2.70;;
4290;SDS011;2159;50.906;7.152;2023-06-19T10:44:59;4.40;;;3.20;;
4290;SDS011;2159;50.906;7.152;2023-06-19T10:47:26;2.87;;;2.67;;
4290;SDS011;2159;50.906;7.152;2023-06-19T10:49:54;3.40;;;3.20;;
4290;SDS011;2159;50.906;7.152;2023-06-19T10:52:21;3.20;;;3.00;;
4290;SDS011;2159;50.906;7.152;2023-06-19T10:54:52;3.60;;;2.90;;
4290;SDS011;2159;50.906;7.152;2023-06-19T10:57:27;7.23;;;3.20;;
4290;SDS011;2159;50.906;7.152;2023-06-19T10:59:54;3.17;;;2.97;;
4290;SDS011;2159;50.906;7.152;2023-06-19T11:02:22;3.47;;;3.27;;
4290;SDS011;2159;50.906;7.152;2023-06-19T11:04:51;3.50;;;3.20;;
4290;SDS011;2159;50.906;7.152;2023-06-19T11:07:19;3.30;;;3.00;;
4290;SDS011;2159;50.906;7.152;2023-06-19T11:09:46;3.33;;;3.03;;
4290;SDS011;2159;50.906;7.152;2023-06-19T11:12:18;3.23;;;2.97;;
4290;SDS011;2159;50.906;7.152;2023-06-19T11:14:48;3.70;;;3.50;;
4290;SDS011;2159;50.906;7.152;2023-06-19T11:17:16;3.60;;;3.40;;
4290;SDS011;2159;50.906;7.152;2023-06-19T11:19:44;4.13;;;3.40;;
4290;SDS011;2159;50.906;7.152;2023-06-19T11:22:12;3.70;;;3.50;;
4290;SDS011;2159;50.906;7.152;2023-06-19T11:24:43;3.80;;;3.03;;
4290;SDS011;2159;50.906;7.152;2023-06-19T11:27:18;3.00;;;2.80;;
4290;SDS011;2159;50.906;7.152;2023-06-19T11:29:47;4.20;;;3.53;;
4290;SDS011;2159;50.906;7.152;2023-06-19T11:32:16;5.40;;;3.43;;
4290;SDS011;2159;50.906;7.152;2023-06-19T11:34:51;3.43;;;3.10;;
4290;SDS011;2159;50.906;7.152;2023-06-19T11:37:20;4.60;;;3.40;;
4290;SDS011;2159;50.906;7.152;2023-06-19T11:39:48;3.67;;;3.37;;
4290;SDS011;2159;50.906;7.152;2023-06-19T11:42:17;4.10;;;3.60;;
4290;SDS011;2159;50.906;7.152;2023-06-19T11:44:55;7.97;;;3.27;;
4290;SDS011;2159;50.906;7.152;2023-06-19T11:47:23;3.30;;;3.10;;
4290;SDS011;2159;50.906;7.152;2023-06-19T11:49:50;3.40;;;3.00;;
4290;SDS011;2159;50.906;7.152;2023-06-19T11:52:18;3.80;;;3.13;;
4290;SDS011;2159;50.906;7.152;2023-06-19T11:54:45;5.43;;;3.40;;
4290;SDS011;2159;50.906;7.152;2023-06-19T11:57:13;5.23;;;3.60;;
4290;SDS011;2159;50.906;7.152;2023-06-19T11:59:40;3.40;;;3.20;;
4290;SDS011;2159;50.906;7.152;2023-06-19T12:02:09;4.07;;;3.70;;
4290;SDS011;2159;50.906;7.152;2023-06-19T12:04:37;5.27;;;3.67;;
4290;SDS011;2159;50.906;7.152;2023-06-19T12:07:05;4.10;;;3.70;;
4290;SDS011;2159;50.906;7.152;2023-06-19T12:09:33;4.80;;;4.00;;
4290;SDS011;2159;50.906;7.152;2023-06-19T12:12:01;4.10;;;3.67;;
4290;SDS011;2159;50.906;7.152;2023-06-19T12:14:28;5.43;;;3.20;;
4290;SDS011;2159;50.906;7.152;2023-06-19T12:16:56;7.00;;;3.40;;
4290;SDS011;2159;50.906;7.152;2023-06-19T12:19:25;4.57;;;3.70;;
4290;SDS011;2159;50.906;7.152;2023-06-19T12:21:53;4.53;;;3.27;;
4290;SDS011;2159;50.906;7.152;2023-06-19T12:24:21;3.60;;;3.30;;
4290;SDS011;2159;50.906;7.152;2023-06-19T12:26:48;4.27;;;3.40;;
4290;SDS011;2159;50.906;7.152;2023-06-19T12:29:16;3.80;;;3.40;;
4290;SDS011;2159;50.906;7.152;2023-06-19T12:31:43;3.87;;;3.53;;
4290;SDS011;2159;50.906;7.152;2023-06-19T12:34:11;3.77;;;3.47;;
4290;SDS011;2159;50.906;7.152;2023-06-19T12:36:57;3.80;;;3.53;;
4290;SDS011;2159;50.906;7.152;2023-06-19T12:39:24;3.50;;;3.30;;
4290;SDS011;2159;50.906;7.152;2023-06-19T12:41:52;4.23;;;3.37;;
4290;SDS011;2159;50.906;7.152;2023-06-19T12:44:20;3.60;;;3.30;;
4290;SDS011;2159;50.906;7.152;2023-06-19T12:46:48;4.17;;;3.30;;
4290;SDS011;2159;50.906;7.152;2023-06-19T12:49:16;4.43;;;3.53;;
4290;SDS011;2159;50.906;7.152;2023-06-19T12:51:44;8.20;;;3.33;;
4290;SDS011;2159;50.906;7.152;2023-06-19T12:54:13;3.60;;;3.40;;
4290;SDS011;2159;50.906;7.152;2023-06-19T12:56:40;4.63;;;3.40;;
4290;SDS011;2159;50.906;7.152;2023-06-19T12:59:08;8.40;;;3.73;;
4290;SDS011;2159;50.906;7.152;2023-06-19T13:01:36;3.70;;;3.33;;
4290;SDS011;2159;50.906;7.152;2023-06-19T13:04:03;4.50;;;3.57;;
4290;SDS011;2159;50.906;7.152;2023-06-19T13:06:31;7.97;;;3.50;;
4290;SDS011;2159;50.906;7.152;2023-06-19T13:08:58;5.20;;;3.37;;
4290;SDS011;2159;50.906;7.152;2023-06-19T13:11:29;3.50;;;3.13;;
4290;SDS011;2159;50.906;7.152;2023-06-19T13:13:57;3.73;;;3.43;;
4290;SDS011;2159;50.906;7.152;2023-06-19T13:16:25;4.23;;;3.50;;
4290;SDS011;2159;50.906;7.152;2023-06-19T13:19:11;4.97;;;3.67;;
4290;SDS011;2159;50.906;7.152;2023-06-19T13:21:40;3.50;;;3.30;;
4290;SDS011;2159;50.906;7.152;2023-06-19T13:24:07;3.00;;;2.80;;
4290;SDS011;2159;50.906;7.152;2023-06-19T13:26:36;7.20;;;3.40;;
4290;SDS011;2159;50.906;7.152;2023-06-19T13:29:04;7.30;;;3.60;;
4290;SDS011;2159;50.906;7.152;2023-06-19T13:31:31;3.40;;;3.20;;
4290;SDS011;2159;50.906;7.152;2023-06-19T13:33:58;4.23;;;3.30;;
4290;SDS011;2159;50.906;7.152;2023-06-19T13:36:26;6.10;;;3.67;;
4290;SDS011;2159;50.906;7.152;2023-06-19T13:38:53;3.70;;;3.20;;
4290;SDS011;2159;50.906;7.152;2023-06-19T13:41:21;3.37;;;3.17;;
4290;SDS011;2159;50.906;7.152;2023-06-19T13:43:51;3.57;;;3.20;;
4290;SDS011;2159;50.906;7.152;2023-06-19T13:46:20;3.53;;;3.33;;
4290;SDS011;2159;50.906;7.152;2023-06-19T13:48:48;3.70;;;3.40;;
4290;SDS011;2159;50.906;7.152;2023-06-19T13:51:18;3.13;;;2.93;;
4290;SDS011;2159;50.906;7.152;2023-06-19T13:53:45;3.47;;;3.27;;
4290;SDS011;2159;50.906;7.152;2023-06-19T13:56:13;3.27;;;2.97;;
4290;SDS011;2159;50.906;7.152;2023-06-19T13:58:41;3.63;;;3.33;;
4290;SDS011;2159;50.906;7.152;2023-06-19T14:01:10;3.10;;;2.90;;
4290;SDS011;2159;50.906;7.152;2023-06-19T14:03:37;3.23;;;3.00;;
4290;SDS011;2159;50.906;7.152;2023-06-19T14:06:05;3.00;;;2.80;;
4290;SDS011;2159;50.906;7.152;2023-06-19T14:08:33;3.57;;;2.93;;
4290;SDS011;2159;50.906;7.152;2023-06-19T14:11:01;2.93;;;2.73;;
4290;SDS011;2159;50.906;7.152;2023-06-19T14:13:29;3.97;;;2.90;;
4290;SDS011;2159;50.906;7.152;2023-06-19T14:15:57;2.83;;;2.63;;
4290;SDS011;2159;50.906;7.152;2023-06-19T14:18:25;3.40;;;3.10;;
4290;SDS011;2159;50.906;7.152;2023-06-19T14:20:53;3.10;;;2.90;;
4290;SDS011;2159;50.906;7.152;2023-06-19T14:23:20;3.17;;;2.80;;
4290;SDS011;2159;50.906;7.152;2023-06-19T14:25:48;2.60;;;2.40;;
4290;SDS011;2159;50.906;7.152;2023-06-19T14:28:15;2.83;;;2.63;;
4290;SDS011;2159;50.906;7.152;2023-06-19T14:30:44;2.97;;;2.77;;
4290;SDS011;2159;50.906;7.152;2023-06-19T14:33:11;3.10;;;2.80;;
4290;SDS011;2159;50.906;7.152;2023-06-19T14:35:42;4.03;;;3.00;;
4290;SDS011;2159;50.906;7.152;2023-06-19T14:38:12;3.20;;;2.90;;
4290;SDS011;2159;50.906;7.152;2023-06-19T14:40:40;4.90;;;3.00;;
4290;SDS011;2159;50.906;7.152;2023-06-19T14:43:08;3.17;;;2.97;;
4290;SDS011;2159;50.906;7.152;2023-06-19T14:45:36;5.30;;;3.20;;
4290;SDS011;2159;50.906;7.152;2023-06-19T14:48:05;8.50;;;3.13;;
4290;SDS011;2159;50.906;7.152;2023-06-19T14:50:33;3.53;;;3.10;;
4290;SDS011;2159;50.906;7.152;2023-06-19T14:53:02;3.40;;;3.20;;
4290;SDS011;2159;50.906;7.152;2023-06-19T14:55:30;3.07;;;2.87;;
4290;SDS011;2159;50.906;7.152;2023-06-19T14:57:58;3.30;;;3.00;;
4290;SDS011;2159;50.906;7.152;2023-06-19T15:00:26;3.10;;;2.90;;
4290;SDS011;2159;50.906;7.152;2023-06-19T15:02:53;2.73;;;2.60;;
4290;SDS011;2159;50.906;7.152;2023-06-19T15:05:21;3.40;;;3.10;;
4290;SDS011;2159;50.906;7.152;2023-06-19T15:07:48;3.00;;;2.80;;
4290;SDS011;2159;50.906;7.152;2023-06-19T15:10:17;3.00;;;2.80;;
4290;SDS011;2159;50.906;7.152;2023-06-19T15:12:44;3.57;;;3.33;;
4290;SDS011;2159;50.906;7.152;2023-06-19T15:15:12;3.10;;;2.90;;
4290;SDS011;2159;50.906;7.152;2023-06-19T15:17:39;3.37;;;2.90;;
4290;SDS011;2159;50.906;7.152;2023-06-19T15:20:07;3.00;;;2.80;;
4290;SDS011;2159;50.906;7.152;2023-06-19T15:22:35;3.03;;;2.70;;